Time;durP1;ratioP1;P1;durP2;ratioP2;P2;SDS_P1;SDS_P2;PMS_P1;PMS_P2;Temp;Humidity;BMP_temperature;BMP_pressure;BME280_temperature;BME280_humidity;BME280_pressure;Samples;Min_cycle;Max_cycle;Signal;HPM_P1;HPM_P2
2023/06/29 00:01:07;;;;;;;28.73;21.33;;;;;;;18.30;100.00;101502.09;5052177;28;20027;-48
2023/06/29 00:03:33;;;;;;;26.85;21.65;;;;;;;18.33;100.00;101489.06;5055791;28;20036;-48
2023/06/29 00:05:59;;;;;;;27.95;22.33;;;;;;;18.28;100.00;101496.84;5056080;28;20067;-46
2023/06/29 00:08:26;;;;;;;29.35;23.27;;;;;;;18.29;100.00;101488.16;5054932;28;20346;-48
2023/06/29 00:10:52;;;;;;;29.27;22.85;;;;;;;18.29;100.00;101489.91;5056168;28;20037;-45
2023/06/29 00:13:18;;;;;;;29.13;22.23;;;;;;;18.27;100.00;101485.56;5056019;28;20045;-48
2023/06/29 00:15:44;;;;;;;27.10;21.42;;;;;;;18.34;100.00;101478.66;5054820;28;20511;-45
2023/06/29 00:18:09;;;;;;;26.73;21.80;;;;;;;18.32;100.00;101480.38;5055978;28;20025;-45
2023/06/29 00:20:35;;;;;;;32.40;24.75;;;;;;;18.31;100.00;101473.41;5055590;28;20025;-44
2023/06/29 00:23:01;;;;;;;31.92;24.38;;;;;;;18.32;100.00;101469.06;5054625;28;20037;-47
2023/06/29 00:25:27;;;;;;;38.03;26.55;;;;;;;18.32;100.00;101463.84;5055438;28;20036;-44
2023/06/29 00:27:53;;;;;;;35.55;24.83;;;;;;;18.30;100.00;101468.19;5055969;28;20127;-44
2023/06/29 00:30:19;;;;;;;31.75;26.05;;;;;;;18.25;100.00;101466.38;5055173;28;20117;-48
2023/06/29 00:32:44;;;;;;;38.28;26.95;;;;;;;18.29;100.00;101469.03;5055450;28;20028;-45
2023/06/29 00:35:10;;;;;;;38.33;27.75;;;;;;;18.29;100.00;101461.22;5055434;28;20033;-44
2023/06/29 00:37:35;;;;;;;34.08;26.05;;;;;;;18.29;100.00;101464.69;5054337;28;20024;-46
2023/06/29 00:40:02;;;;;;;37.17;27.17;;;;;;;18.27;100.00;101466.44;5055304;28;20131;-47
2023/06/29 00:42:28;;;;;;;34.42;25.02;;;;;;;18.25;100.00;101453.34;5055195;28;20025;-43
2023/06/29 00:44:53;;;;;;;32.75;25.58;;;;;;;18.28;100.00;101465.53;5054817;28;20441;-47
2023/06/29 00:47:19;;;;;;;36.80;26.63;;;;;;;18.27;100.00;101456.00;5055448;28;20473;-48
2023/06/29 00:49:45;;;;;;;38.22;28.45;;;;;;;18.29;100.00;101451.63;5055091;28;20048;-44
2023/06/29 00:52:11;;;;;;;41.80;28.42;;;;;;;18.28;100.00;101457.72;5054739;28;20060;-46
2023/06/29 00:54:37;;;;;;;35.55;25.50;;;;;;;18.30;100.00;101460.38;5055024;28;20094;-46
2023/06/29 00:57:02;;;;;;;32.97;25.95;;;;;;;18.30;100.00;101458.63;5054322;28;20477;-47
2023/06/29 00:59:28;;;;;;;33.47;24.83;;;;;;;18.29;100.00;101453.38;5055177;28;20054;-47
2023/06/29 01:01:53;;;;;;;38.42;28.60;;;;;;;18.30;100.00;101453.41;5055031;28;20045;-43
2023/06/29 01:04:22;;;;;;;38.08;27.45;;;;;;;18.31;100.00;101442.09;5054312;28;20029;-45
2023/06/29 01:07:13;;;;;;;37.15;27.33;;;;;;;18.33;100.00;101445.56;5054952;28;20357;-48
2023/06/29 01:09:40;;;;;;;38.00;28.92;;;;;;;18.31;100.00;101442.09;5054840;28;20028;-45
2023/06/29 01:12:06;;;;;;;40.42;29.35;;;;;;;18.32;100.00;101428.19;5053937;28;20087;-48
2023/06/29 01:14:32;;;;;;;34.60;26.15;;;;;;;18.30;100.00;101436.88;5054569;28;20047;-44
2023/06/29 01:16:58;;;;;;;37.97;28.27;;;;;;;18.30;100.00;101440.34;5054762;28;20021;-48
2023/06/29 01:19:28;;;;;;;39.83;27.75;;;;;;;18.27;100.00;101448.16;5053880;28;20040;-45
2023/06/29 01:22:04;;;;;;;37.63;28.05;;;;;;;18.32;100.00;101442.97;5054508;28;20048;-45
2023/06/29 01:24:37;;;;;;;39.85;29.02;;;;;;;18.31;100.00;101429.06;5054657;28;20053;-48
2023/06/29 01:27:03;;;;;;;38.30;27.48;;;;;;;18.33;100.00;101434.28;5053946;28;20060;-48
2023/06/29 01:29:30;;;;;;;38.53;28.92;;;;;;;18.35;100.00;101429.94;5054098;28;20025;-47
2023/06/29 01:31:59;;;;;;;42.65;28.50;;;;;;;18.34;100.00;101426.44;5054745;28;20033;-46
2023/06/29 01:34:28;;;;;;;40.75;28.95;;;;;;;18.35;100.00;101427.34;5054051;28;20013;-47
2023/06/29 01:37:01;;;;;;;41.10;28.08;;;;;;;18.38;100.00;101430.81;5054227;28;20032;-42
2023/06/29 01:39:35;;;;;;;37.83;27.60;;;;;;;18.39;100.00;101429.97;5053441;28;20029;-48
2023/06/29 01:42:01;;;;;;;43.25;27.88;;;;;;;18.39;100.00;101429.97;5054356;28;20025;-47
2023/06/29 01:44:26;;;;;;;41.50;29.63;;;;;;;18.41;100.00;101423.03;5054087;28;20074;-46
2023/06/29 01:46:53;;;;;;;46.67;29.05;;;;;;;18.41;100.00;101420.44;5053579;28;20056;-47
2023/06/29 01:49:18;;;;;;;40.00;28.48;;;;;;;18.41;100.00;101417.81;5054267;28;20035;-46
2023/06/29 01:51:43;;;;;;;35.47;27.27;;;;;;;18.40;100.00;101415.19;5053833;28;20029;-47
2023/06/29 01:54:09;;;;;;;40.22;28.75;;;;;;;18.42;100.00;101414.34;5053508;28;20377;-42
2023/06/29 01:56:34;;;;;;;39.63;28.80;;;;;;;18.42;100.00;101418.69;5053783;28;20033;-45
2023/06/29 01:59:01;;;;;;;39.47;28.73;;;;;;;18.40;100.00;101410.84;5053861;28;20021;-47
2023/06/29 02:01:27;;;;;;;38.60;27.85;;;;;;;18.40;100.00;101420.41;5053115;28;20020;-43
2023/06/29 02:03:53;;;;;;;36.92;27.38;;;;;;;18.35;100.00;101415.16;5053877;28;20452;-46
2023/06/29 02:06:18;;;;;;;39.03;27.17;;;;;;;18.38;100.00;101412.56;5053978;28;20500;-48
2023/06/29 02:08:44;;;;;;;38.88;27.45;;;;;;;18.39;100.00;101411.69;5052801;28;20372;-45
2023/06/29 02:11:10;;;;;;;40.13;28.85;;;;;;;18.39;100.00;101408.22;5053657;28;20029;-46
2023/06/29 02:13:35;;;;;;;41.00;28.52;;;;;;;18.42;100.00;101414.34;5053601;28;20461;-48
2023/06/29 02:16:00;;;;;;;38.40;28.45;;;;;;;18.40;100.00;101410.84;5053033;28;20029;-47
2023/06/29 02:18:26;;;;;;;41.58;29.10;;;;;;;18.40;100.00;101405.63;5053190;28;20485;-47
2023/06/29 02:20:51;;;;;;;39.28;27.33;;;;;;;18.40;100.00;101403.00;5053360;28;20044;-44
2023/06/29 02:23:16;;;;;;;39.55;29.10;;;;;;;18.41;100.00;101407.38;5053082;28;20032;-47
2023/06/29 02:25:42;;;;;;;39.17;27.48;;;;;;;18.39;100.00;101403.88;5052520;28;20473;-48
2023/06/29 02:28:07;;;;;;;37.10;27.85;;;;;;;18.39;100.00;101397.78;5053332;28;20385;-46
2023/06/29 02:30:32;;;;;;;36.25;28.48;;;;;;;18.39;100.00;101396.03;5052485;28;20025;-47
2023/06/29 02:32:58;;;;;;;37.03;28.13;;;;;;;18.39;100.00;101403.88;5053479;28;20078;-45
2023/06/29 02:35:23;;;;;;;39.90;27.83;;;;;;;18.38;100.00;101391.69;5052346;28;20373;-43
2023/06/29 02:37:48;;;;;;;41.08;30.13;;;;;;;18.36;100.00;101393.44;5053133;28;20035;-47
2023/06/29 02:40:13;;;;;;;42.90;29.45;;;;;;;18.36;100.00;101397.75;5053108;28;20080;-46
2023/06/29 02:42:39;;;;;;;42.15;29.08;;;;;;;18.34;100.00;101389.91;5052294;28;20107;-45
2023/06/29 02:45:05;;;;;;;39.53;28.52;;;;;;;18.36;100.00;101388.19;5052969;28;20075;-46
2023/06/29 02:47:30;;;;;;;40.67;28.80;;;;;;;18.37;100.00;101384.75;5052963;28;20031;-43
2023/06/29 02:49:56;;;;;;;41.65;29.70;;;;;;;18.34;100.00;101376.00;5052461;28;20108;-46
2023/06/29 02:52:21;;;;;;;42.35;29.35;;;;;;;18.32;100.00;101378.63;5053200;28;20111;-48
2023/06/29 02:54:46;;;;;;;41.85;28.83;;;;;;;18.31;100.00;101376.88;5052663;28;20017;-44
2023/06/29 02:57:12;;;;;;;38.85;29.88;;;;;;;18.30;100.00;101376.88;5052411;28;20028;-44
2023/06/29 02:59:38;;;;;;;38.90;28.90;;;;;;;18.31;100.00;101373.38;5052859;28;20021;-45
2023/06/29 03:02:03;;;;;;;41.30;30.55;;;;;;;18.31;100.00;101376.88;5053045;28;20427;-46
2023/06/29 03:04:29;;;;;;;43.08;29.88;;;;;;;18.34;100.00;101374.25;5051850;28;20033;-45
2023/06/29 03:06:54;;;;;;;41.67;29.38;;;;;;;18.33;100.00;101375.13;5053261;28;20146;-45
2023/06/29 03:09:19;;;;;;;47.00;29.98;;;;;;;18.36;100.00;101369.94;5052967;28;20037;-44
2023/06/29 03:11:45;;;;;;;40.15;29.75;;;;;;;18.36;100.00;101374.25;5051702;28;20036;-46
2023/06/29 03:14:10;;;;;;;47.55;31.08;;;;;;;18.39;100.00;101377.78;5052984;28;20048;-47
2023/06/29 03:16:35;;;;;;;40.53;29.45;;;;;;;18.37;100.00;101378.63;5052540;28;20029;-46
2023/06/29 03:19:00;;;;;;;42.75;30.30;;;;;;;18.36;100.00;101371.66;5051963;28;20052;-47
2023/06/29 03:21:26;;;;;;;45.78;30.65;;;;;;;18.38;100.00;101375.16;5052309;28;20072;-46
2023/06/29 03:23:51;;;;;;;43.40;29.48;;;;;;;18.36;100.00;101369.94;5052594;28;20025;-46
2023/06/29 03:26:17;;;;;;;44.00;30.55;;;;;;;18.36;100.00;101369.94;5051891;28;20079;-46
2023/06/29 03:28:42;;;;;;;45.85;31.25;;;;;;;18.36;100.00;101366.44;5052479;28;20131;-46
2023/06/29 03:31:07;;;;;;;47.13;32.60;;;;;;;18.36;100.00;101366.44;5052737;28;20064;-46
2023/06/29 03:33:33;;;;;;;44.78;31.65;;;;;;;18.35;100.00;101368.19;5051742;28;20028;-45
2023/06/29 03:35:58;;;;;;;43.63;30.80;;;;;;;18.35;100.00;101364.72;5054541;28;20129;-46
2023/06/29 03:38:23;;;;;;;42.15;29.50;;;;;;;18.34;100.00;101362.97;5056251;28;20111;-45
2023/06/29 03:40:48;;;;;;;43.42;29.17;;;;;;;18.36;100.00;101363.81;5055804;28;20083;-46
2023/06/29 03:43:14;;;;;;;40.50;29.90;;;;;;;18.36;100.00;101362.09;5056749;28;20017;-45
2023/06/29 03:45:39;;;;;;;44.72;29.52;;;;;;;18.36;100.00;101364.72;5055647;28;20036;-45
2023/06/29 03:48:05;;;;;;;45.83;29.42;;;;;;;18.34;100.00;101358.59;5056685;28;20024;-48
2023/06/29 03:50:30;;;;;;;43.25;29.83;;;;;;;18.37;100.00;101362.97;5056279;28;20028;-45
2023/06/29 03:52:56;;;;;;;44.25;29.58;;;;;;;18.39;100.00;101367.34;5055683;28;20230;-45
2023/06/29 03:55:21;;;;;;;41.00;28.95;;;;;;;18.40;100.00;101363.88;5056223;28;20031;-48
2023/06/29 03:57:46;;;;;;;45.65;31.35;;;;;;;18.39;100.00;101364.72;5055909;28;20021;-46
2023/06/29 04:00:12;;;;;;;38.85;30.02;;;;;;;18.41;100.00;101364.72;5055571;28;20083;-47
2023/06/29 04:02:37;;;;;;;42.55;30.08;;;;;;;18.43;100.00;101358.66;5056141;28;20017;-43
2023/06/29 04:05:03;;;;;;;45.22;30.60;;;;;;;18.45;100.00;101356.06;5056329;28;20079;-42
2023/06/29 04:07:28;;;;;;;46.38;30.23;;;;;;;18.46;100.00;101351.72;5055109;28;20108;-43
2023/06/29 04:09:54;;;;;;;46.88;30.08;;;;;;;18.47;100.00;101343.88;5056076;28;20104;-46
2023/06/29 04:12:19;;;;;;;44.97;29.67;;;;;;;18.48;100.00;101340.41;5056174;28;20069;-46
2023/06/29 04:14:45;;;;;;;42.50;30.10;;;;;;;18.50;100.00;101349.13;5054772;28;20504;-47
2023/06/29 04:17:11;;;;;;;45.65;30.75;;;;;;;18.53;100.00;101346.53;5055806;28;20420;-46
2023/06/29 04:19:36;;;;;;;48.38;31.15;;;;;;;18.54;100.00;101334.34;5055692;28;20021;-47
2023/06/29 04:22:02;;;;;;;41.92;30.83;;;;;;;18.56;100.00;101345.66;5054894;28;20366;-41
2023/06/29 04:24:27;;;;;;;44.42;30.55;;;;;;;18.57;100.00;101340.44;5055432;28;20025;-46
2023/06/29 04:26:52;;;;;;;44.50;31.88;;;;;;;18.59;100.00;101338.72;5055846;28;20028;-45
2023/06/29 04:29:18;;;;;;;45.85;30.48;;;;;;;18.60;100.00;101339.59;5055034;28;20052;-45
2023/06/29 04:31:43;;;;;;;45.90;31.17;;;;;;;18.60;100.00;101342.19;5055461;28;20017;-47
2023/06/29 04:34:08;;;;;;;47.38;31.45;;;;;;;18.62;100.00;101337.88;5055713;28;20045;-44
2023/06/29 04:36:34;;;;;;;45.30;30.58;;;;;;;18.63;100.00;101338.72;5054457;28;20373;-46
2023/06/29 04:39:00;;;;;;;48.83;29.80;;;;;;;18.68;100.00;101337.00;5055474;28;20032;-47
2023/06/29 04:41:32;;;;;;;47.65;29.73;;;;;;;18.66;100.00;101334.41;5055434;28;20021;-46
2023/06/29 04:44:01;;;;;;;48.05;29.90;;;;;;;18.68;100.00;101331.78;5054816;28;20029;-47
2023/06/29 04:46:28;;;;;;;47.10;31.00;;;;;;;18.70;100.00;101330.94;5055121;28;20126;-45
2023/06/29 04:48:54;;;;;;;44.92;30.02;;;;;;;18.72;100.00;101329.22;5054789;28;20036;-45
2023/06/29 04:51:19;;;;;;;45.25;30.00;;;;;;;18.75;100.00;101328.34;5054643;28;20039;-44
2023/06/29 04:53:45;;;;;;;45.00;30.23;;;;;;;18.78;100.00;101330.09;5054921;28;20025;-46
2023/06/29 04:56:10;;;;;;;44.80;29.70;;;;;;;18.82;100.00;101331.84;5054673;28;20029;-45
2023/06/29 04:58:36;;;;;;;45.65;30.85;;;;;;;18.83;100.00;101331.84;5054752;28;20039;-46
2023/06/29 05:01:01;;;;;;;47.92;30.38;;;;;;;18.87;100.00;101327.50;5055273;28;20465;-43
2023/06/29 05:03:27;;;;;;;45.90;30.20;;;;;;;18.90;100.00;101328.44;5054222;28;20053;-46
2023/06/29 05:05:52;;;;;;;51.17;30.83;;;;;;;18.91;100.00;101334.50;5054935;28;20059;-47
2023/06/29 05:08:17;;;;;;;46.80;31.10;;;;;;;18.94;100.00;101333.66;5054980;28;20038;-48
2023/06/29 05:10:43;;;;;;;46.00;30.15;;;;;;;18.94;100.00;101326.69;5053840;28;20013;-47
2023/06/29 05:13:09;;;;;;;47.00;31.70;;;;;;;18.94;100.00;101331.03;5055035;28;20043;-44
2023/06/29 05:15:34;;;;;;;48.17;30.98;;;;;;;18.96;100.00;101327.56;5054511;28;20021;-43
2023/06/29 05:17:59;;;;;;;46.38;29.63;;;;;;;18.98;100.00;101322.34;5053933;28;20041;-47
2023/06/29 05:20:25;;;;;;;46.15;30.95;;;;;;;19.00;100.00;101329.31;5054753;28;20078;-43
2023/06/29 05:22:50;;;;;;;45.63;30.05;;;;;;;19.08;100.00;101326.72;5054678;28;20044;-44
2023/06/29 05:25:15;;;;;;;51.15;32.13;;;;;;;19.07;100.00;101331.06;5054103;28;20021;-44
2023/06/29 05:27:41;;;;;;;44.15;30.77;;;;;;;19.13;100.00;101324.13;5054490;28;20032;-42
2023/06/29 05:30:10;;;;;;;50.25;31.92;;;;;;;19.10;100.00;101321.50;5054757;28;20040;-42
2023/06/29 05:32:37;;;;;;;46.35;31.35;;;;;;;19.05;100.00;101322.34;5053465;28;20067;-42
2023/06/29 05:35:02;;;;;;;44.97;31.63;;;;;;;19.06;100.00;101329.31;5054699;28;20155;-44
2023/06/29 05:37:29;;;;;;;51.83;31.85;;;;;;;19.06;100.00;101323.25;5053969;28;20485;-42
2023/06/29 05:39:56;;;;;;;52.70;31.60;;;;;;;19.06;100.00;101324.09;5053913;28;20431;-42
2023/06/29 05:42:22;;;;;;;49.42;32.25;;;;;;;19.06;100.00;101316.25;5054661;28;20286;-42
2023/06/29 05:44:47;;;;;;;48.05;32.42;;;;;;;19.04;100.00;101320.63;5054505;28;20032;-42
2023/06/29 05:47:12;;;;;;;47.92;32.28;;;;;;;19.06;100.00;101320.63;5053716;28;20114;-42
2023/06/29 05:49:38;;;;;;;51.15;32.75;;;;;;;19.09;100.00;101312.78;5054027;28;20017;-46
2023/06/29 05:52:03;;;;;;;49.40;32.50;;;;;;;19.06;100.00;101308.44;5054158;28;20371;-43
2023/06/29 05:54:31;;;;;;;49.08;31.75;;;;;;;19.07;100.00;101311.94;5053063;28;20028;-42
2023/06/29 05:56:57;;;;;;;48.63;33.30;;;;;;;19.05;100.00;101317.13;5054009;28;20033;-43
2023/06/29 05:59:22;;;;;;;46.92;32.42;;;;;;;19.02;100.00;101317.13;5052402;28;20031;-43
2023/06/29 06:01:47;;;;;;;50.13;33.38;;;;;;;19.04;100.00;101311.91;5053929;28;20025;-45
2023/06/29 06:04:12;;;;;;;47.53;32.65;;;;;;;19.05;100.00;101316.28;5053959;28;20377;-44
2023/06/29 06:06:39;;;;;;;46.45;31.70;;;;;;;19.10;100.00;101318.91;5052735;28;20048;-45
2023/06/29 06:09:04;;;;;;;47.63;32.40;;;;;;;19.13;100.00;101316.28;5053913;28;20032;-42
2023/06/29 06:11:30;;;;;;;44.92;31.50;;;;;;;19.18;100.00;101315.41;5053476;28;20100;-42
2023/06/29 06:13:55;;;;;;;46.83;31.85;;;;;;;19.28;100.00;101315.44;5053040;28;20079;-42
2023/06/29 06:16:21;;;;;;;46.03;32.00;;;;;;;19.32;100.00;101310.19;5053604;28;20100;-46
2023/06/29 06:18:46;;;;;;;46.15;29.55;;;;;;;19.36;100.00;101317.16;5053270;28;20056;-44
2023/06/29 06:21:11;;;;;;;42.97;29.00;;;;;;;19.42;100.00;101314.56;5052489;28;20072;-42
2023/06/29 06:23:37;;;;;;;47.47;30.95;;;;;;;19.47;100.00;101313.69;5053414;28;20037;-42
2023/06/29 06:26:02;;;;;;;40.75;28.48;;;;;;;19.49;100.00;101311.97;5053688;28;20029;-44
2023/06/29 06:28:27;;;;;;;44.83;29.17;;;;;;;19.55;100.00;101322.41;5052334;28;20397;-42
2023/06/29 06:30:53;;;;;;;43.10;28.60;;;;;;;19.65;100.00;101311.09;5049485;28;20041;-42
2023/06/29 06:33:18;;;;;;;37.63;27.55;;;;;;;19.69;100.00;101315.44;5033452;28;20101;-45
2023/06/29 06:35:44;;;;;;;40.45;27.80;;;;;;;19.77;100.00;101306.69;5032434;28;20083;-45
2023/06/29 06:38:09;;;;;;;41.53;26.58;;;;;;;19.77;99.14;101310.19;5033481;28;20034;-44
2023/06/29 06:40:35;;;;;;;40.08;26.90;;;;;;;19.79;99.60;101310.19;5033385;28;20044;-43
2023/06/29 06:43:00;;;;;;;39.58;26.35;;;;;;;19.87;99.82;101311.06;5032711;28;20031;-43
2023/06/29 06:45:25;;;;;;;38.33;25.90;;;;;;;20.07;98.87;101317.13;5033022;28;20022;-42
2023/06/29 06:47:51;;;;;;;40.53;25.55;;;;;;;20.15;98.33;101322.34;5033423;28;20033;-45
2023/06/29 06:50:16;;;;;;;39.55;26.38;;;;;;;20.22;97.84;101318.00;5032392;28;20034;-42
2023/06/29 06:52:41;;;;;;;37.50;25.42;;;;;;;20.40;97.21;101314.44;5033076;28;20068;-42
2023/06/29 06:55:07;;;;;;;37.40;24.70;;;;;;;20.42;97.20;101317.06;5033192;28;20026;-41
2023/06/29 06:57:33;;;;;;;38.30;26.30;;;;;;;20.59;96.17;101311.75;5032213;28;20083;-45
2023/06/29 06:59:58;;;;;;;38.17;26.08;;;;;;;20.70;94.87;101310.84;5033082;28;20025;-47
2023/06/29 07:02:23;;;;;;;38.10;25.27;;;;;;;20.86;94.71;101306.41;5032859;28;20033;-46
2023/06/29 07:04:49;;;;;;;36.60;24.42;;;;;;;20.94;92.56;101310.72;5032103;28;20032;-44
2023/06/29 07:07:15;;;;;;;39.53;24.23;;;;;;;21.17;91.90;101318.41;5032917;28;20424;-41
2023/06/29 07:09:40;;;;;;;37.33;24.73;;;;;;;21.22;90.78;101317.50;5031986;28;20057;-44
2023/06/29 07:12:06;;;;;;;36.78;25.30;;;;;;;21.22;90.37;101317.50;5032830;28;20474;-43
2023/06/29 07:14:31;;;;;;;37.80;24.23;;;;;;;21.22;89.22;101316.63;5032663;28;20044;-43
2023/06/29 07:16:57;;;;;;;36.33;23.88;;;;;;;21.16;88.55;101308.81;5032139;28;20407;-44
2023/06/29 07:19:22;;;;;;;36.75;22.73;;;;;;;21.22;88.50;101311.41;5032484;28;20124;-43
2023/06/29 07:21:48;;;;;;;34.65;22.17;;;;;;;21.31;89.00;101311.31;5032511;28;20088;-43
2023/06/29 07:24:13;;;;;;;32.72;21.77;;;;;;;21.39;88.63;101308.66;5032155;28;20075;-43
2023/06/29 07:26:39;;;;;;;35.42;23.15;;;;;;;21.46;88.05;101314.69;5032512;28;20028;-45
2023/06/29 07:29:05;;;;;;;34.10;23.45;;;;;;;21.44;86.21;101316.47;5032750;28;20109;-46
2023/06/29 07:31:30;;;;;;;35.22;23.67;;;;;;;21.60;86.14;101312.00;5031730;28;20078;-46
2023/06/29 07:33:56;;;;;;;35.75;23.35;;;;;;;21.63;85.22;101310.22;5032627;28;20044;-42
2023/06/29 07:36:22;;;;;;;38.80;23.67;;;;;;;21.83;85.20;101311.78;5032540;28;20440;-41
2023/06/29 07:38:48;;;;;;;35.97;23.92;;;;;;;21.86;84.26;101312.63;5031996;28;20032;-44
2023/06/29 07:41:15;;;;;;;37.10;24.48;;;;;;;21.86;82.53;101310.00;5032571;28;20029;-46
2023/06/29 07:43:41;;;;;;;37.28;24.17;;;;;;;21.86;81.09;101303.91;5032394;28;20018;-46
2023/06/29 07:46:07;;;;;;;36.60;24.60;;;;;;;21.76;79.76;101303.13;5031766;28;20017;-42
2023/06/29 07:48:32;;;;;;;37.50;24.58;;;;;;;21.79;80.22;101299.59;5032182;28;20087;-45
2023/06/29 07:50:58;;;;;;;36.47;24.05;;;;;;;21.85;80.17;101307.41;5032648;28;20483;-44
2023/06/29 07:53:23;;;;;;;37.67;25.65;;;;;;;21.87;79.49;101300.38;5031625;28;20028;-43
2023/06/29 07:55:49;;;;;;;34.25;23.30;;;;;;;22.04;80.80;101303.69;5032403;28;20385;-42
2023/06/29 07:58:14;;;;;;;36.70;24.23;;;;;;;22.40;80.05;101299.81;5032316;28;20072;-44
2023/06/29 08:00:39;;;;;;;43.95;25.60;;;;;;;22.47;78.48;101298.88;5031335;28;20030;-46
2023/06/29 08:03:05;;;;;;;39.00;25.60;;;;;;;22.67;76.46;101298.59;5032597;28;20113;-43
2023/06/29 08:05:30;;;;;;;39.55;24.23;;;;;;;22.79;75.79;101294.94;5032213;28;20010;-46
2023/06/29 08:07:56;;;;;;;36.17;24.58;;;;;;;22.72;72.80;101295.91;5031575;28;20028;-43
2023/06/29 08:10:21;;;;;;;38.75;24.35;;;;;;;22.63;73.69;101287.28;5032497;28;20029;-43
2023/06/29 08:12:47;;;;;;;35.67;23.77;;;;;;;22.65;73.19;101290.72;5031950;28;20057;-45
2023/06/29 08:15:12;;;;;;;36.35;24.65;;;;;;;22.63;75.03;101289.00;5031471;28;20056;-46
2023/06/29 08:17:37;;;;;;;36.70;24.02;;;;;;;22.64;74.59;101286.34;5031858;28;20040;-43
2023/06/29 08:20:05;;;;;;;38.88;24.42;;;;;;;22.58;74.02;101288.22;5031781;28;20028;-46
2023/06/29 08:22:31;;;;;;;39.55;24.60;;;;;;;22.51;73.40;101287.44;5032782;28;20437;-46
2023/06/29 08:24:56;;;;;;;37.33;24.10;;;;;;;22.56;73.00;101285.59;5035843;28;20057;-41
2023/06/29 08:27:21;;;;;;;38.15;24.33;;;;;;;22.71;73.31;101287.16;5035270;28;20035;-44
2023/06/29 08:29:47;;;;;;;42.75;25.33;;;;;;;22.67;73.72;101288.06;5035750;28;20021;-43
2023/06/29 08:32:13;;;;;;;42.38;25.75;;;;;;;22.77;73.97;101294.09;5035639;28;20420;-44
2023/06/29 08:34:38;;;;;;;42.85;26.27;;;;;;;22.90;73.33;101300.03;5034648;28;20030;-44
2023/06/29 08:37:04;;;;;;;41.78;24.92;;;;;;;23.01;72.71;101288.47;5035804;28;20021;-45
2023/06/29 08:39:30;;;;;;;38.15;25.05;;;;;;;22.95;71.59;101303.47;5035242;28;20082;-46
2023/06/29 08:41:55;;;;;;;37.30;24.98;;;;;;;22.94;71.27;101294.69;5034897;28;20029;-47
2023/06/29 08:44:22;;;;;;;41.58;25.85;;;;;;;22.96;69.74;101292.91;5035547;28;20393;-44
2023/06/29 08:46:48;;;;;;;42.10;25.93;;;;;;;22.71;70.61;101288.91;5035428;28;20033;-44
2023/06/29 08:49:15;;;;;;;37.55;25.83;;;;;;;22.68;71.45;101290.72;5034642;28;20028;-43
2023/06/29 08:51:43;;;;;;;39.10;25.63;;;;;;;22.86;72.31;101288.69;5035157;28;20021;-44
2023/06/29 08:54:11;;;;;;;38.17;25.70;;;;;;;23.28;71.88;101291.59;5035294;28;20461;-43
2023/06/29 08:56:36;;;;;;;42.42;26.60;;;;;;;23.21;70.22;101289.94;5038774;28;20025;-47
2023/06/29 08:59:02;;;;;;;37.13;25.40;;;;;;;23.28;70.30;101290.69;5035329;28;20018;-46
2023/06/29 09:01:28;;;;;;;46.08;26.45;;;;;;;23.38;68.30;101288.81;5034941;28;20022;-47
2023/06/29 09:03:54;;;;;;;41.47;26.35;;;;;;;23.34;67.32;101291.50;5034772;28;20073;-45
2023/06/29 09:06:19;;;;;;;40.28;26.13;;;;;;;23.51;66.95;101277.16;5035029;28;20462;-47
2023/06/29 09:08:45;;;;;;;40.72;26.08;;;;;;;23.73;67.34;101279.41;5034922;28;20033;-43
2023/06/29 09:11:10;;;;;;;42.10;26.08;;;;;;;23.98;67.11;101274.59;5034370;28;20056;-44
2023/06/29 09:13:36;;;;;;;44.35;26.73;;;;;;;24.11;65.75;101272.59;5034672;28;20096;-48
2023/06/29 09:16:03;;;;;;;38.70;24.92;;;;;;;24.19;64.83;101277.69;5034635;28;20025;-42
2023/06/29 09:18:29;;;;;;;36.15;24.40;;;;;;;24.38;65.06;101279.03;5034066;28;20034;-48
2023/06/29 09:20:55;;;;;;;37.75;24.45;;;;;;;24.28;66.41;101275.72;5035089;28;20029;-45
2023/06/29 09:23:21;;;;;;;42.65;26.40;;;;;;;24.33;65.50;101273.88;5033925;28;20060;-47
2023/06/29 09:25:49;;;;;;;41.42;26.17;;;;;;;24.35;63.68;101292.28;5034762;28;20055;-46
2023/06/29 09:28:15;;;;;;;39.13;24.98;;;;;;;24.38;63.23;101278.19;5034650;28;20021;-44
2023/06/29 09:30:41;;;;;;;37.45;24.83;;;;;;;24.46;64.88;101273.63;5033611;28;20021;-44
2023/06/29 09:33:11;;;;;;;40.55;25.55;;;;;;;24.45;63.76;101277.13;5034666;28;20034;-46
2023/06/29 09:35:43;;;;;;;40.28;24.90;;;;;;;24.35;63.47;101279.13;5034447;28;20022;-47
2023/06/29 09:38:08;;;;;;;36.35;24.35;;;;;;;24.32;64.50;101277.41;5033789;28;20029;-47
2023/06/29 09:40:54;;;;;;;40.80;26.48;;;;;;;24.38;65.86;101278.19;5043141;28;20029;-45
2023/06/29 09:43:26;;;;;;;43.13;26.63;;;;;;;24.12;66.87;101279.59;5054269;28;20087;-45
2023/06/29 09:45:59;;;;;;;47.25;26.50;;;;;;;24.26;67.33;101274.91;5053643;28;20384;-43
2023/06/29 09:48:25;;;;;;;42.13;26.83;;;;;;;24.46;65.30;101273.63;5054183;28;20033;-43
2023/06/29 09:50:50;;;;;;;46.05;27.13;;;;;;;24.46;64.45;101273.63;5054074;28;20028;-45
2023/06/29 09:53:16;;;;;;;39.13;25.88;;;;;;;24.63;64.49;101276.78;5053524;28;20087;-43
2023/06/29 09:55:42;;;;;;;43.30;26.50;;;;;;;24.28;62.42;101282.78;5053817;28;20451;-45
2023/06/29 09:58:08;;;;;;;40.97;25.70;;;;;;;24.09;60.79;101288.44;5053938;28;20025;-45
2023/06/29 10:00:35;;;;;;;43.42;27.27;;;;;;;23.89;61.36;101283.50;5053218;28;20027;-44
2023/06/29 10:03:00;;;;;;;40.55;26.65;;;;;;;23.98;62.79;101277.22;5052805;28;20461;-46
2023/06/29 10:05:30;;;;;;;44.35;27.77;;;;;;;23.99;62.23;101284.25;5049911;28;20095;-45
2023/06/29 10:07:57;;;;;;;44.97;29.40;;;;;;;24.09;62.47;101275.25;5052594;28;20021;-42
2023/06/29 10:10:25;;;;;;;47.08;29.58;;;;;;;23.79;60.93;101282.78;5047630;28;20033;-42
2023/06/29 10:12:55;;;;;;;43.13;28.60;;;;;;;23.98;61.79;101278.09;5033144;28;20489;-47
2023/06/29 10:15:24;;;;;;;46.67;29.38;;;;;;;23.79;61.59;101279.31;5033834;28;20105;-43
2023/06/29 10:18:00;;;;;;;45.10;29.67;;;;;;;23.80;63.32;101273.16;5046097;28;20125;-45
2023/06/29 10:20:28;;;;;;;50.55;30.08;;;;;;;24.04;64.23;101273.59;5049896;28;20075;-47
2023/06/29 10:22:57;;;;;;;50.38;30.27;;;;;;;23.88;62.09;101271.22;5053404;28;20091;-53
2023/06/29 10:25:24;;;;;;;49.03;28.80;;;;;;;23.96;62.51;101279.00;5053529;28;20028;-43
2023/06/29 10:27:53;;;;;;;45.70;30.25;;;;;;;24.04;62.74;101281.50;5052735;28;20384;-44
2023/06/29 10:30:20;;;;;;;47.53;29.98;;;;;;;23.95;62.40;101282.53;5053528;28;20016;-47
2023/06/29 10:32:49;;;;;;;48.88;30.02;;;;;;;24.02;63.03;101280.69;5037976;28;20102;-43
2023/06/29 10:35:14;;;;;;;45.08;29.50;;;;;;;24.18;62.24;101274.19;5032702;28;20025;-42
2023/06/29 10:37:43;;;;;;;43.35;29.05;;;;;;;24.30;65.12;101278.34;5033236;28;20484;-44
2023/06/29 10:40:19;;;;;;;46.05;29.75;;;;;;;24.03;63.58;101279.75;5033101;28;20036;-47
2023/06/29 10:42:51;;;;;;;49.47;30.40;;;;;;;24.01;64.37;101277.16;5032336;28;20021;-47
2023/06/29 10:45:16;;;;;;;49.30;29.55;;;;;;;23.96;64.71;101274.63;5032900;28;20033;-45
2023/06/29 10:47:42;;;;;;;47.78;30.60;;;;;;;24.06;65.67;101280.56;5032112;28;20048;-46
2023/06/29 10:50:10;;;;;;;43.40;27.80;;;;;;;24.14;65.90;101272.50;5032966;28;20038;-45
2023/06/29 10:52:39;;;;;;;48.17;29.60;;;;;;;24.16;63.20;101276.00;5033064;28;20029;-47
2023/06/29 10:55:22;;;;;;;47.40;29.55;;;;;;;23.94;63.47;101270.28;5032486;28;20064;-44
2023/06/29 10:57:55;;;;;;;48.13;28.05;;;;;;;23.80;64.66;101268.75;5032866;28;20484;-46
2023/06/29 11:00:23;;;;;;;47.60;29.90;;;;;;;23.66;64.88;101270.78;5033137;28;20029;-42